Main page
METAR-TAF:

METAR-TAF

Airports :

Rajkot Airport

Rajkot, India

latitude: 22-18N, longitude: 070-47E, elevation: 134 m

Current weather observation

The report was made 3 hours and 23 minutes ago, at 03:00 UTC
Calm wind
Temperature 23°C
Humidity 69%
Pressure 1014 hPa
Visibility: 2000 m
haze

METAR: VARK 050300Z 00000KT 2000 HZ NSC 23/17 Q1014 NOSIG

Time: 11:53 (06:23 UTC)

Forecast

The report was made 1 hour and 23 minutes ago, at 05:00 UTC
Forecast valid from 05 at 06 UTC to 05 at 15 UTC
Wind 6 kt from the North/Northwest
Visibility: 4000 m
smoke
Becoming
from 05 at 07 UTC to 05 at 09 UTC
Visibility: 6000 m

TAF: VARK 050500Z 0506/0515 33006KT 4000 FU NSC BECMG 0507/0509 6000

Weather observations and forecasts of more than 4000 airports (METAR and TAF reports).

The available stations are represented by yellow and red dots on the map.

Hover mouse over dot to see the name of the station.

Then click to see weather observations and forecasts.

To change the map : click on the green buttons with a black cross to zoom in, on the green button with a dash to zoom out, or on the green arrows for adjacent maps.


METAR-TAF: